CheckWX is a tool to help pilots better visualize weather data.  It is not intended as a substitute for an official pre-flight weather briefing.

06:58:44 UTC

EGCC TAF
Manchester Airport
Manchester, United Kingdom
TAF EGCC 190502Z 1906/2012 29005KT 9999 SCT018 TEMPO 1906/1910 BKN010 PROB30 TEMPO 1906/1908 6000 RA BKN006 PROB30 TEMPO 1910/1918 8000 SHRA PROB30 TEMPO 2000/2012 6000 SHRA

Jun-19@
06:00 UTC

Jun-19 @ 06:00 UTC

Jun-20@
12:00 UTC

Jun-20 @ 12:00 UTC

TAF EGCC 190502Z 1906/2012 29005KT 9999 SCT018
Wind
  • 290° at 5 KTS
Cloud Levels
  • Scattered at 1,800' AGL

Jun-19@
06:00 UTC

Jun-19 @ 06:00 UTC

Jun-19@
08:00 UTC

Jun-19 @ 08:00 UTC

PROB30 TEMPO 1906/1908 6000 RA BKN006

Temporary - 30% Likelihood

Temporary - 30% Likelihood during this time.

Conditions
Rain
Cloud Levels
  • Broken at 600' AGL

Jun-19@
06:00 UTC

Jun-19 @ 06:00 UTC

Jun-19@
10:00 UTC

Jun-19 @ 10:00 UTC

TEMPO 1906/1910 BKN010

Temporary

Temporary Changes expected for less than half the time period

Cloud Levels
  • Broken at 1,000' AGL

Jun-19@
10:00 UTC

Jun-19 @ 10:00 UTC

Jun-19@
18:00 UTC

Jun-19 @ 18:00 UTC

PROB30 TEMPO 1910/1918 8000 SHRA

Temporary - 30% Likelihood

Temporary - 30% Likelihood during this time.

Conditions
Rain

Jun-20@
00:00 UTC

Jun-20 @ 00:00 UTC

Jun-20@
12:00 UTC

Jun-20 @ 12:00 UTC

PROB30 TEMPO 2000/2012 6000 SHRA

Temporary - 30% Likelihood

Temporary - 30% Likelihood during this time.

Conditions
Rain